createdAt,value
2018-07-26T00:01:58.970Z,22.47
2018-07-26T00:04:33.883Z,22.42
2018-07-26T00:07:06.927Z,22.38
2018-07-26T00:09:39.870Z,22.29
2018-07-26T00:12:13.406Z,22.15
2018-07-26T00:14:46.209Z,22.05
2018-07-26T00:17:19.092Z,22.03
2018-07-26T00:19:53.368Z,21.96
2018-07-26T00:22:27.158Z,21.97
2018-07-26T00:25:00.077Z,21.95
2018-07-26T00:27:33.311Z,21.90
2018-07-26T00:30:08.200Z,21.85
2018-07-26T00:32:41.104Z,21.92
2018-07-26T00:35:14.381Z,21.91
2018-07-26T00:37:51.460Z,22.00
2018-07-26T00:40:25.973Z,22.11
2018-07-26T00:43:02.099Z,22.04
2018-07-26T00:45:37.928Z,22.04
2018-07-26T00:48:11.770Z,21.98
2018-07-26T00:50:45.138Z,21.98
2018-07-26T00:53:21.107Z,22.04
2018-07-26T00:55:57.196Z,22.05
2018-07-26T00:58:30.576Z,22.03
2018-07-26T01:01:05.375Z,22.03
2018-07-26T01:03:38.452Z,21.90
2018-07-26T01:06:12.534Z,21.76
2018-07-26T01:08:45.893Z,21.73
2018-07-26T01:11:18.868Z,21.78
2018-07-26T01:13:53.509Z,21.82
2018-07-26T01:16:52.196Z,21.80
2018-07-26T01:19:30.100Z,21.57
2018-07-26T01:22:05.535Z,21.42
2018-07-26T01:24:38.462Z,21.51
2018-07-26T01:27:14.704Z,21.49
2018-07-26T01:29:49.051Z,21.49
2018-07-26T01:32:25.239Z,21.38
2018-07-26T01:34:58.290Z,21.27
2018-07-26T01:37:33.173Z,21.25
2018-07-26T01:40:07.090Z,21.27
2018-07-26T01:43:09.198Z,21.24
2018-07-26T01:45:43.077Z,21.27
2018-07-26T01:48:16.278Z,21.40
2018-07-26T01:50:50.424Z,21.44
2018-07-26T01:53:23.880Z,21.41
2018-07-26T01:55:58.197Z,21.30
2018-07-26T01:58:32.360Z,21.19
2018-07-26T02:01:07.810Z,21.17
2018-07-26T02:03:42.357Z,21.35
2018-07-26T02:06:15.903Z,21.52
2018-07-26T02:08:48.622Z,21.67
2018-07-26T02:11:21.502Z,21.75
2018-07-26T02:13:58.157Z,21.79
2018-07-26T02:16:31.074Z,21.94
2018-07-26T02:19:06.804Z,21.97
2018-07-26T02:21:40.427Z,21.94
2018-07-26T02:24:13.353Z,21.93
2018-07-26T02:26:46.665Z,21.88
2018-07-26T02:29:20.753Z,21.87
2018-07-26T02:31:55.172Z,21.84
2018-07-26T02:34:27.937Z,21.74
2018-07-26T02:37:01.435Z,21.76
2018-07-26T02:39:34.206Z,21.78
2018-07-26T02:42:08.426Z,21.81
2018-07-26T02:44:41.715Z,21.73
2018-07-26T02:47:14.528Z,21.55
2018-07-26T02:49:47.257Z,21.36
2018-07-26T02:52:20.537Z,21.17
2018-07-26T02:54:53.251Z,20.92
2018-07-26T02:57:26.353Z,20.66
2018-07-26T02:59:59.936Z,20.50
2018-07-26T03:02:34.177Z,20.47
2018-07-26T03:05:09.367Z,20.46
2018-07-26T03:07:42.776Z,20.33
2018-07-26T03:10:15.729Z,20.15
2018-07-26T03:12:49.130Z,20.00
2018-07-26T03:15:23.550Z,19.94
2018-07-26T03:17:58.352Z,19.97
2018-07-26T03:20:31.471Z,19.98
2018-07-26T03:23:09.750Z,20.03
2018-07-26T03:25:44.471Z,20.06
2018-07-26T03:28:17.479Z,19.99
2018-07-26T03:30:51.107Z,19.90
2018-07-26T03:33:27.346Z,19.83
2018-07-26T03:36:00.121Z,19.75
2018-07-26T03:38:32.884Z,19.69
2018-07-26T03:41:06.128Z,19.66
2018-07-26T03:43:40.441Z,19.69
2018-07-26T03:46:13.333Z,19.77
2018-07-26T03:48:50.682Z,19.72
2018-07-26T03:51:23.558Z,19.63
2018-07-26T03:53:57.557Z,19.61
2018-07-26T03:56:31.913Z,19.59
2018-07-26T03:59:05.064Z,19.50
2018-07-26T04:01:39.931Z,19.43
2018-07-26T04:04:13.241Z,19.42
2018-07-26T04:06:46.637Z,19.44
2018-07-26T04:09:19.622Z,19.41
2018-07-26T04:11:54.240Z,19.38
2018-07-26T04:14:28.266Z,19.38
2018-07-26T04:17:01.369Z,19.58
2018-07-26T04:19:36.620Z,19.66
2018-07-26T04:22:09.460Z,19.71
2018-07-26T04:24:43.849Z,19.55
2018-07-26T04:27:18.157Z,19.49
2018-07-26T04:29:51.635Z,19.57
2018-07-26T04:32:24.581Z,19.56
2018-07-26T04:34:57.435Z,19.54
2018-07-26T04:37:30.687Z,19.59
2018-07-26T04:40:03.761Z,19.75
2018-07-26T04:42:36.671Z,19.90
2018-07-26T04:45:10.057Z,19.94
2018-07-26T04:47:44.080Z,19.88
2018-07-26T04:50:20.243Z,19.83
2018-07-26T04:52:53.880Z,19.82
2018-07-26T04:55:26.696Z,19.83
2018-07-26T04:58:02.376Z,19.83
2018-07-26T05:00:37.809Z,19.93
2018-07-26T05:03:11.995Z,20.10
2018-07-26T05:05:44.757Z,20.17
2018-07-26T05:08:18.779Z,20.21
2018-07-26T05:10:52.252Z,20.29
2018-07-26T05:13:25.157Z,20.36
2018-07-26T05:15:59.276Z,20.42
2018-07-26T05:18:33.687Z,20.47
2018-07-26T05:21:07.227Z,20.53
2018-07-26T05:23:40.813Z,20.60
2018-07-26T05:26:14.820Z,20.70
2018-07-26T05:28:49.495Z,20.83
2018-07-26T05:31:27.987Z,20.98
2018-07-26T05:34:03.268Z,21.12
2018-07-26T05:36:37.471Z,21.31
2018-07-26T05:39:11.596Z,21.55
2018-07-26T05:41:45.854Z,21.82
2018-07-26T05:44:23.166Z,22.17
2018-07-26T05:46:56.093Z,22.42
2018-07-26T05:49:30.988Z,22.66
2018-07-26T05:52:06.737Z,22.92
2018-07-26T05:54:42.451Z,23.21
2018-07-26T05:57:16.014Z,23.56
2018-07-26T05:59:49.973Z,23.87
2018-07-26T06:02:24.501Z,24.09
2018-07-26T06:05:01.392Z,24.32
2018-07-26T06:07:35.656Z,24.56
2018-07-26T06:10:13.061Z,24.83
2018-07-26T06:12:47.492Z,25.22
2018-07-26T06:15:21.104Z,25.51
2018-07-26T06:17:54.353Z,25.83
2018-07-26T06:20:27.294Z,26.21
2018-07-26T06:23:01.109Z,26.50
2018-07-26T06:25:34.496Z,26.94
2018-07-26T06:28:10.074Z,27.30
2018-07-26T06:30:44.237Z,27.72
2018-07-26T06:33:18.267Z,28.12
2018-07-26T06:35:51.253Z,28.50
2018-07-26T06:38:26.575Z,28.85
2018-07-26T06:40:59.714Z,29.10
2018-07-26T06:43:41.158Z,29.31
2018-07-26T06:46:14.304Z,29.53
2018-07-26T06:48:47.638Z,29.72
2018-07-26T06:51:22.971Z,29.82
2018-07-26T06:53:56.803Z,29.94
2018-07-26T06:56:31.596Z,30.05
2018-07-26T06:59:05.494Z,30.12
2018-07-26T07:01:38.299Z,30.30
2018-07-26T07:04:12.960Z,30.41
2018-07-26T07:06:46.663Z,30.51
2018-07-26T07:09:20.620Z,30.67
2018-07-26T07:11:53.881Z,30.76
2018-07-26T07:14:28.033Z,30.79
2018-07-26T07:17:03.529Z,30.83
2018-07-26T07:19:38.023Z,30.89
2018-07-26T07:22:13.752Z,30.96
2018-07-26T07:24:47.800Z,31.03
2018-07-26T07:27:21.695Z,31.05
2018-07-26T07:30:00.632Z,30.99
2018-07-26T07:32:42.745Z,30.96
2018-07-26T07:35:16.142Z,30.93
2018-07-26T07:37:51.453Z,30.96
2018-07-26T07:40:25.997Z,31.02
2018-07-26T07:42:58.941Z,31.12
2018-07-26T07:45:33.386Z,31.37
2018-07-26T07:48:08.944Z,31.83
2018-07-26T07:50:43.397Z,32.65
2018-07-26T07:53:16.330Z,33.40
2018-07-26T07:55:49.050Z,34.10
2018-07-26T07:58:21.980Z,34.55
2018-07-26T08:00:56.147Z,34.74
2018-07-26T08:03:30.288Z,34.61
2018-07-26T08:06:03.089Z,34.77
2018-07-26T08:08:37.715Z,34.85
2018-07-26T08:11:12.201Z,34.88
2018-07-26T08:13:46.054Z,35.27
2018-07-26T08:16:21.864Z,35.54
2018-07-26T08:18:56.254Z,36.03
2018-07-26T08:21:33.253Z,36.42
2018-07-26T08:24:06.133Z,36.24
2018-07-26T08:26:40.034Z,36.06
2018-07-26T08:29:14.086Z,36.02
2018-07-26T08:31:48.401Z,36.48
2018-07-26T08:37:03.212Z,36.89
2018-07-26T08:39:40.681Z,37.17
2018-07-26T08:42:13.595Z,36.65
2018-07-26T08:44:46.665Z,36.42
2018-07-26T08:47:20.471Z,36.28
2018-07-26T08:49:53.363Z,36.17
2018-07-26T08:52:28.367Z,35.78
2018-07-26T08:55:09.821Z,35.69
2018-07-26T08:57:42.791Z,35.81
2018-07-26T09:00:19.456Z,36.14
2018-07-26T09:02:54.000Z,36.52
2018-07-26T09:05:29.276Z,36.16
2018-07-26T09:08:03.288Z,36.61
2018-07-26T09:10:37.048Z,36.88
2018-07-26T09:13:13.216Z,37.16
2018-07-26T09:15:46.752Z,37.52
2018-07-26T09:18:20.874Z,37.98
2018-07-26T09:20:56.477Z,37.31
2018-07-26T09:23:32.797Z,37.61
2018-07-26T09:26:07.136Z,37.54
2018-07-26T09:28:40.765Z,37.80
2018-07-26T09:31:13.579Z,37.84
2018-07-26T09:33:48.177Z,37.55
2018-07-26T09:36:23.516Z,36.76
2018-07-26T09:38:56.318Z,36.14
2018-07-26T09:41:31.391Z,35.96
2018-07-26T09:44:06.864Z,36.24
2018-07-26T09:46:40.686Z,36.40
2018-07-26T09:49:20.316Z,36.15
2018-07-26T09:51:55.472Z,36.06
2018-07-26T09:54:29.968Z,36.08
2018-07-26T09:57:08.467Z,36.27
2018-07-26T09:59:41.292Z,36.52
2018-07-26T10:02:14.956Z,36.49
2018-07-26T10:04:50.772Z,36.83
2018-07-26T10:07:29.067Z,37.60
2018-07-26T10:10:10.816Z,37.82
2018-07-26T10:12:48.749Z,38.44
2018-07-26T10:15:23.650Z,38.71
2018-07-26T10:18:00.764Z,38.93
2018-07-26T10:20:45.739Z,39.31
2018-07-26T10:23:19.628Z,39.05
2018-07-26T10:27:14.100Z,39.61
2018-07-26T10:29:49.064Z,39.72
2018-07-26T10:32:24.608Z,39.33
2018-07-26T10:34:57.544Z,38.86
2018-07-26T10:37:32.692Z,38.42
2018-07-26T10:40:08.005Z,38.19
2018-07-26T10:42:41.726Z,38.16
2018-07-26T10:45:20.589Z,37.94
2018-07-26T10:48:00.817Z,38.21
2018-07-26T10:50:37.020Z,38.77
2018-07-26T10:53:10.654Z,39.35
2018-07-26T10:55:44.287Z,39.47
2018-07-26T10:58:21.866Z,39.32
2018-07-26T11:00:54.806Z,39.63
2018-07-26T11:03:31.191Z,39.83
2018-07-26T11:06:05.411Z,39.96
2018-07-26T11:08:41.358Z,40.13
2018-07-26T11:11:15.345Z,40.51
2018-07-26T11:13:49.975Z,40.33
2018-07-26T11:16:27.653Z,40.15
2018-07-26T11:19:04.022Z,40.66
2018-07-26T11:21:39.598Z,40.54
2018-07-26T11:24:12.814Z,40.22
2018-07-26T11:26:48.722Z,40.09
2018-07-26T11:29:23.898Z,40.50
2018-07-26T11:31:57.682Z,40.79
2018-07-26T11:34:33.166Z,40.77
2018-07-26T11:37:08.584Z,39.75
2018-07-26T11:39:44.809Z,39.91
2018-07-26T11:42:19.021Z,40.20
2018-07-26T11:44:55.562Z,40.43
2018-07-26T11:47:34.728Z,40.16
2018-07-26T11:50:10.302Z,40.19
2018-07-26T11:52:43.151Z,40.58
2018-07-26T11:55:19.748Z,40.86
2018-07-26T11:57:53.677Z,40.64
2018-07-26T12:00:29.461Z,40.90
2018-07-26T12:03:08.806Z,41.11
2018-07-26T12:05:45.906Z,41.54
2018-07-26T12:08:22.524Z,41.60
2018-07-26T12:10:58.552Z,41.31
2018-07-26T12:13:33.395Z,40.90
2018-07-26T12:16:08.205Z,40.94
2018-07-26T12:18:42.119Z,40.67
2018-07-26T12:21:15.674Z,40.38
2018-07-26T12:23:51.229Z,40.33
2018-07-26T12:26:25.197Z,40.39
2018-07-26T12:28:59.265Z,40.51
2018-07-26T12:31:34.312Z,39.97
2018-07-26T12:34:08.948Z,39.62
2018-07-26T12:36:43.503Z,39.84
2018-07-26T12:39:18.010Z,40.33
2018-07-26T12:41:53.325Z,41.16
2018-07-26T12:44:27.544Z,41.62
2018-07-26T12:47:02.689Z,41.94
2018-07-26T12:49:35.618Z,41.77
2018-07-26T12:52:19.355Z,41.91
2018-07-26T12:54:53.285Z,41.90
2018-07-26T12:57:27.727Z,41.87
2018-07-26T13:00:03.875Z,41.38
2018-07-26T13:02:40.104Z,41.11
2018-07-26T13:05:15.606Z,40.68
2018-07-26T13:07:51.029Z,40.03
2018-07-26T13:10:25.125Z,39.60
2018-07-26T13:12:58.033Z,39.43
2018-07-26T13:15:31.744Z,39.23
2018-07-26T13:18:06.758Z,39.18
2018-07-26T13:20:40.998Z,38.96
2018-07-26T13:23:15.198Z,38.76
2018-07-26T13:25:49.166Z,38.91
2018-07-26T13:28:22.769Z,39.38
2018-07-26T13:30:57.168Z,39.58
2018-07-26T13:33:33.235Z,39.76
2018-07-26T13:36:06.409Z,39.69
2018-07-26T13:38:39.489Z,39.31
2018-07-26T13:41:13.870Z,38.82
2018-07-26T13:43:46.926Z,38.67
2018-07-26T13:46:22.667Z,38.68
2018-07-26T13:48:57.306Z,38.71
2018-07-26T13:51:30.454Z,38.73
2018-07-26T13:54:06.399Z,38.76
2018-07-26T13:56:42.327Z,38.94
2018-07-26T13:59:19.059Z,39.21
2018-07-26T14:01:53.575Z,39.70
2018-07-26T14:04:28.681Z,40.27
2018-07-26T14:07:05.373Z,40.53
2018-07-26T14:09:40.381Z,40.67
2018-07-26T14:12:15.503Z,40.82
2018-07-26T14:14:49.488Z,41.55
2018-07-26T14:17:23.955Z,41.91
2018-07-26T14:19:57.965Z,41.94
2018-07-26T14:22:32.864Z,41.71
2018-07-26T14:25:07.676Z,41.08
2018-07-26T14:27:43.277Z,40.72
2018-07-26T14:30:19.381Z,40.51
2018-07-26T14:32:54.860Z,40.67
2018-07-26T14:35:37.452Z,40.68
2018-07-26T14:38:11.748Z,40.91
2018-07-26T14:40:46.298Z,40.95
2018-07-26T14:43:20.785Z,40.96
2018-07-26T14:45:53.759Z,41.51
2018-07-26T14:48:31.453Z,41.85
2018-07-26T14:51:08.362Z,41.74
2018-07-26T14:53:43.880Z,41.13
2018-07-26T14:56:20.917Z,40.51
2018-07-26T14:58:56.237Z,40.04
2018-07-26T15:01:32.751Z,39.50
2018-07-26T15:04:06.544Z,38.89
2018-07-26T15:06:49.513Z,38.41
2018-07-26T15:09:23.478Z,38.02
2018-07-26T15:11:58.337Z,37.68
2018-07-26T15:14:33.117Z,37.33
2018-07-26T15:17:08.550Z,37.15
2018-07-26T15:19:42.000Z,37.10
2018-07-26T15:22:14.877Z,36.70
2018-07-26T15:24:51.836Z,36.14
2018-07-26T15:27:27.192Z,36.07
2018-07-26T15:30:00.254Z,36.14
2018-07-26T15:32:39.568Z,36.01
2018-07-26T15:35:13.561Z,35.98
2018-07-26T15:37:47.451Z,35.96
2018-07-26T15:40:21.293Z,35.67
2018-07-26T15:42:55.279Z,35.19
2018-07-26T15:45:28.622Z,34.76
2018-07-26T15:48:05.465Z,34.69
2018-07-26T15:50:39.903Z,34.52
2018-07-26T15:53:14.578Z,34.42
2018-07-26T15:55:51.058Z,34.28
2018-07-26T15:58:25.206Z,34.23
2018-07-26T16:00:58.708Z,34.17
2018-07-26T16:03:34.397Z,34.10
2018-07-26T16:06:19.904Z,33.70
2018-07-26T16:08:53.907Z,33.72
2018-07-26T16:11:28.022Z,33.66
2018-07-26T16:14:03.897Z,33.78
2018-07-26T16:16:38.733Z,33.93
2018-07-26T16:19:12.754Z,34.28
2018-07-26T16:21:47.584Z,34.93
2018-07-26T16:24:22.904Z,35.74
2018-07-26T16:26:58.343Z,36.43
2018-07-26T16:29:33.890Z,36.69
2018-07-26T16:32:08.749Z,36.88
2018-07-26T16:34:46.760Z,36.95
2018-07-26T16:37:20.598Z,37.08
2018-07-26T16:39:53.600Z,37.49
2018-07-26T16:42:27.509Z,37.86
2018-07-26T16:45:04.865Z,38.28
2018-07-26T16:47:38.527Z,38.78
2018-07-26T16:50:12.229Z,39.11
2018-07-26T16:52:46.884Z,39.06
2018-07-26T16:55:23.143Z,39.14
2018-07-26T16:57:58.365Z,39.14
2018-07-26T17:00:34.097Z,38.83
2018-07-26T17:03:09.475Z,38.47
2018-07-26T17:05:44.186Z,38.11
2018-07-26T17:08:16.985Z,37.83
2018-07-26T17:10:50.524Z,37.44
2018-07-26T17:13:24.926Z,37.06
2018-07-26T17:15:58.538Z,36.73
2018-07-26T17:18:32.113Z,36.46
2018-07-26T17:21:07.523Z,36.23
2018-07-26T17:23:43.895Z,36.03
2018-07-26T17:26:19.782Z,35.80
2018-07-26T17:29:03.830Z,35.58
2018-07-26T17:31:42.609Z,35.38
2018-07-26T17:34:17.175Z,35.23
2018-07-26T17:36:51.700Z,35.05
2018-07-26T17:39:27.105Z,34.92
2018-07-26T17:42:00.646Z,34.67
2018-07-26T17:44:33.466Z,34.40
2018-07-26T17:47:15.852Z,34.07
2018-07-26T17:49:50.317Z,33.84
2018-07-26T17:52:25.004Z,33.63
2018-07-26T17:55:00.692Z,33.48
2018-07-26T17:57:36.322Z,33.37
2018-07-26T18:00:15.085Z,33.34
2018-07-26T18:02:49.677Z,33.34
2018-07-26T18:05:27.460Z,33.31
2018-07-26T18:08:01.815Z,33.40
2018-07-26T18:10:34.600Z,33.52
2018-07-26T18:13:11.360Z,33.59
2018-07-26T18:15:46.230Z,33.63
2018-07-26T18:18:19.591Z,33.66
2018-07-26T18:20:54.218Z,33.71
2018-07-26T18:23:27.748Z,33.76
2018-07-26T18:26:02.148Z,33.78
2018-07-26T18:28:35.045Z,33.73
2018-07-26T18:31:12.086Z,33.64
2018-07-26T18:33:49.336Z,33.54
2018-07-26T18:36:23.068Z,33.37
2018-07-26T18:38:55.898Z,33.04
2018-07-26T18:41:30.845Z,32.77
2018-07-26T18:44:04.140Z,32.58
2018-07-26T18:46:41.277Z,32.38
2018-07-26T18:49:15.342Z,32.27
2018-07-26T18:51:48.253Z,32.13
2018-07-26T18:54:22.306Z,31.99
2018-07-26T18:56:55.929Z,31.82
2018-07-26T18:59:29.814Z,31.68
2018-07-26T19:02:02.811Z,31.57
2018-07-26T19:04:37.109Z,31.51
2018-07-26T19:07:11.120Z,31.48
2018-07-26T19:09:43.995Z,31.43
2018-07-26T19:12:17.224Z,31.32
2018-07-26T19:14:50.872Z,31.26
2018-07-26T19:17:24.681Z,31.18
2018-07-26T19:19:59.845Z,31.09
2018-07-26T19:22:33.535Z,30.99
2018-07-26T19:25:08.771Z,30.86
2018-07-26T19:27:43.953Z,30.72
2018-07-26T19:30:17.545Z,30.80
2018-07-26T19:32:50.524Z,30.51
2018-07-26T19:35:27.522Z,30.28
2018-07-26T19:38:01.877Z,30.12
2018-07-26T19:40:37.294Z,29.97
2018-07-26T19:43:13.870Z,29.72
2018-07-26T19:45:51.141Z,29.43
2018-07-26T19:48:26.337Z,29.24
2018-07-26T19:50:59.776Z,29.10
2018-07-26T19:53:35.400Z,28.98
2018-07-26T19:56:15.574Z,28.77
2018-07-26T19:58:51.728Z,28.57
2018-07-26T20:01:27.206Z,28.43
2018-07-26T20:04:03.176Z,28.43
2018-07-26T20:06:37.710Z,28.50
2018-07-26T20:09:11.833Z,28.63
2018-07-26T20:11:46.925Z,28.56
2018-07-26T20:14:23.406Z,28.41
2018-07-26T20:16:59.937Z,28.25
2018-07-26T20:19:36.521Z,28.06
2018-07-26T20:22:10.887Z,27.86
2018-07-26T20:24:44.212Z,27.71
2018-07-26T20:27:18.526Z,27.60
2018-07-26T20:29:51.358Z,27.45
2018-07-26T20:32:26.575Z,27.36
2018-07-26T20:35:00.156Z,27.33
2018-07-26T20:37:37.859Z,27.27
2018-07-26T20:40:15.262Z,27.23
2018-07-26T20:42:50.477Z,27.22
2018-07-26T20:45:27.181Z,27.18
2018-07-26T20:48:00.240Z,27.12
2018-07-26T20:50:33.203Z,27.12
2018-07-26T20:53:06.679Z,27.10
2018-07-26T20:55:41.566Z,27.05
2018-07-26T20:58:18.027Z,27.01
2018-07-26T21:00:52.143Z,26.99
2018-07-26T21:03:26.279Z,26.96
2018-07-26T21:06:06.215Z,26.89
2018-07-26T21:08:40.800Z,26.82
2018-07-26T21:11:21.816Z,26.73
2018-07-26T21:13:57.716Z,26.62
2018-07-26T21:16:36.569Z,26.59
2018-07-26T21:19:16.615Z,26.58
2018-07-26T21:21:57.847Z,26.54
2018-07-26T21:24:40.112Z,26.49
2018-07-26T21:27:26.432Z,26.48
2018-07-26T21:30:08.513Z,26.45
2018-07-26T21:32:54.695Z,26.47
2018-07-26T21:35:33.098Z,26.48
2018-07-26T21:38:14.676Z,26.54
2018-07-26T21:40:53.675Z,26.49
2018-07-26T21:43:27.655Z,26.45
2018-07-26T21:46:05.107Z,26.37
2018-07-26T21:48:42.521Z,26.27
2018-07-26T21:51:22.040Z,26.14
2018-07-26T21:53:56.707Z,25.99
2018-07-26T21:56:31.230Z,25.86
2018-07-26T21:59:05.744Z,25.84
2018-07-26T22:01:40.321Z,25.83
2018-07-26T22:04:14.529Z,25.84
2018-07-26T22:06:49.507Z,25.73
2018-07-26T22:09:24.650Z,25.65
2018-07-26T22:12:03.087Z,25.70
2018-07-26T22:14:37.633Z,25.73
2018-07-26T22:17:11.549Z,25.75
2018-07-26T22:19:47.685Z,25.78
2018-07-26T22:22:24.151Z,25.81
2018-07-26T22:25:05.666Z,25.80
2018-07-26T22:27:43.651Z,25.76
2018-07-26T22:30:18.997Z,25.77
2018-07-26T22:32:54.369Z,25.83
2018-07-26T22:35:28.253Z,25.80
2018-07-26T22:38:01.617Z,25.82
2018-07-26T22:40:36.283Z,25.79
2018-07-26T22:43:13.553Z,25.82
2018-07-26T22:45:51.907Z,25.79
2018-07-26T22:48:24.768Z,25.77
2018-07-26T22:50:58.796Z,25.75
2018-07-26T22:53:32.758Z,25.72
2018-07-26T22:56:05.872Z,25.72
2018-07-26T22:58:39.728Z,25.80
2018-07-26T23:01:15.796Z,25.80
2018-07-26T23:03:48.620Z,25.80
2018-07-26T23:06:28.245Z,25.81
2018-07-26T23:09:03.693Z,25.77
2018-07-26T23:11:41.211Z,25.73
2018-07-26T23:14:14.164Z,25.72
2018-07-26T23:16:48.771Z,25.70
2018-07-26T23:19:22.380Z,25.66
2018-07-26T23:21:56.133Z,25.60
2018-07-26T23:24:30.195Z,25.59
2018-07-26T23:27:04.622Z,25.62
2018-07-26T23:29:37.381Z,25.62
2018-07-26T23:32:12.701Z,25.67
2018-07-26T23:34:46.319Z,25.63
2018-07-26T23:37:20.508Z,25.65
2018-07-26T23:39:54.933Z,25.64
2018-07-26T23:42:28.494Z,25.69
2018-07-26T23:45:04.630Z,25.68
2018-07-26T23:47:45.789Z,25.73
2018-07-26T23:50:23.501Z,25.79
2018-07-26T23:53:16.796Z,25.73
2018-07-26T23:55:52.880Z,25.68
2018-07-26T23:58:27.141Z,25.67
